Terminal Aerodrome Forecast
Issued by NWS

Home | Current Version | Previous Version | Text Only | Print | Product List | Glossary On
Versions: 1 2 3 4 5 6 7 8 9 10 11 12 13 14 15 16 17 18 19 20 21 22 23 24 25
000
FTAK31 PANC 271731
TAFADQ
TAF
PADQ 271731Z 2718/2818 07006KT P6SM -RA FEW010 BKN025 OVC035
     FM272000 15010KT 6SM -RA OVC020
     FM272300 12015G20KT 3SM -RA BKN005 OVC012
     FM280300 12011KT 3SM -RA OVC005
     FM280900 08010KT 5SM -SHRA BR OVC010
     FM281200 35010KT 5SM RA BR OVC025=

USA.gov is the U.S. government's official web portal to all federal, state and local government web resources and services.